MSC Opera — H3FV — position and weather

sailwx.info

Track history (hours):
 
Tides and Currents Weather Stations Pressure Air Temp Water Temp Dewpoint Dewpoint Depression Visibility Wind Speed Wind Dir Waves Ship Positions

MSC Opera

Operator: Mediterranean Shipping Company

Last reported at 2019-Mar-17 02:42 UTC. Time now 2019-Mar-22 12:09 UTC.
Position N 17°58' W 063°01'.

Length 274 m; draft 6.8 m.

Type: Ship. MMSI: 357627000.

Date/timePositionNaut miles runAvg speedWind from/ knotsBaromVisibWave heightAir tempDewpointWater temp
2019-Mar-17 02:42N 17°58' W 063°01'211.1
2019-Mar-17 02:30N 17°60' W 063°02'1 1.5
2019-Mar-17 01:50N 18°01' W 063°03'0 0.0
2019-Mar-17 01:29N 18°01' W 063°03'0 0.0
2019-Mar-17 00:44N 18°01' W 063°03'0 0.0
2019-Mar-17 00:25N 18°01' W 063°03'0 0.0
2019-Mar-16 23:52N 18°01' W 063°03'0 0.0
2019-Mar-16 23:19N 18°01' W 063°03'0 0.0
2019-Mar-16 22:58N 18°01' W 063°03'0 0.0
2019-Mar-16 22:20N 18°01' W 063°03'0 0.0
2019-Mar-16 21:51N 18°01' W 063°03'0 0.0
2019-Mar-16 21:18N 18°01' W 063°03'0 0.0
2019-Mar-16 20:45N 18°01' W 063°03'0 0.0
2019-Mar-16 20:30N 18°01' W 063°03'0 0.0
2019-Mar-16 19:53N 18°01' W 063°03'0 0.0
2019-Mar-16 19:17N 18°01' W 063°03'0 0.0
2019-Mar-16 18:47N 18°01' W 063°03'0 0.0
2019-Mar-16 18:29N 18°01' W 063°03'0 0.0
2019-Mar-16 17:59N 18°01' W 063°03'0 0.0
2019-Mar-16 17:25N 18°01' W 063°03'0 0.0
2019-Mar-16 16:52N 18°01' W 063°03'0 0.0
2019-Mar-16 16:13N 18°01' W 063°03'0 0.6
2019-Mar-16 15:54N 18°00' W 063°03'1 3.2
2019-Mar-16 15:30N 18°00' W 063°04'711.3
2019-Mar-16 14:55N 18°03' W 063°11'1018.8
2019-Mar-16 14:23N 18°09' W 063°19'918.5
2019-Mar-16 13:54N 18°15' W 063°26'  
2019-Mar-12 00:03N 20°35' W 086°56'117.0
2019-Mar-12 00:01N 20°35' W 086°57'4 8.2
2019-Mar-11 23:30N 20°31' W 086°57'0 0.0
2019-Mar-11 22:58N 20°31' W 086°57'0 0.0
2019-Mar-11 22:28N 20°31' W 086°57'0 0.0
2019-Mar-11 22:00N 20°31' W 086°57'0 0.0
2019-Mar-11 21:30N 20°31' W 086°57'0 0.0
2019-Mar-11 21:00N 20°31' W 086°57'0 0.0
2019-Mar-11 20:30N 20°31' W 086°57'0 0.0
2019-Mar-11 20:00N 20°31' W 086°57'0 0.0
2019-Mar-11 19:29N 20°31' W 086°57'0 0.0
2019-Mar-11 18:59N 20°31' W 086°57'0 0.0
2019-Mar-11 18:29N 20°31' W 086°57'0 0.0
2019-Mar-11 17:59N 20°31' W 086°57'0 0.0
2019-Mar-11 17:28N 20°31' W 086°57'0 0.0
2019-Mar-11 16:58N 20°31' W 086°57'0 0.0
2019-Mar-11 16:28N 20°31' W 086°57'0 0.0
2019-Mar-11 15:58N 20°31' W 086°57'0 0.0
2019-Mar-11 15:28N 20°31' W 086°57'0 0.0
2019-Mar-11 15:00N 20°31' W 086°57'0 0.0
2019-Mar-11 14:27N 20°31' W 086°57'1 3.1
2019-Mar-11 14:00N 20°32' W 086°57'510.6
2019-Mar-11 13:30N 20°36' W 086°54'  
Track history (hours):
 
Tides and Currents Weather Stations Pressure Air Temp Water Temp Dewpoint Dewpoint Depression Visibility Wind Speed Wind Dir Waves Ship Positions

MSC Opera

Operator: Mediterranean Shipping Company

Last reported at 2019-Mar-17 02:42 UTC. Time now 2019-Mar-22 12:09 UTC.
Position N 17°58' W 063°01'.

Length 274 m; draft 6.8 m.

Type: Ship. MMSI: 357627000.

Date/timePositionNaut miles runAvg speedWind from/ knotsBaromVisibWave heightAir tempDewpointWater temp
2019-Mar-17 02:42N 17°58' W 063°01'211.1
2019-Mar-17 02:30N 17°60' W 063°02'1 1.5
2019-Mar-17 01:50N 18°01' W 063°03'0 0.0
2019-Mar-17 01:29N 18°01' W 063°03'0 0.0
2019-Mar-17 00:44N 18°01' W 063°03'0 0.0
2019-Mar-17 00:25N 18°01' W 063°03'0 0.0
2019-Mar-16 23:52N 18°01' W 063°03'0 0.0
2019-Mar-16 23:19N 18°01' W 063°03'0 0.0
2019-Mar-16 22:58N 18°01' W 063°03'0 0.0
2019-Mar-16 22:20N 18°01' W 063°03'0 0.0
2019-Mar-16 21:51N 18°01' W 063°03'0 0.0
2019-Mar-16 21:18N 18°01' W 063°03'0 0.0
2019-Mar-16 20:45N 18°01' W 063°03'0 0.0
2019-Mar-16 20:30N 18°01' W 063°03'0 0.0
2019-Mar-16 19:53N 18°01' W 063°03'0 0.0
2019-Mar-16 19:17N 18°01' W 063°03'0 0.0
2019-Mar-16 18:47N 18°01' W 063°03'0 0.0
2019-Mar-16 18:29N 18°01' W 063°03'0 0.0
2019-Mar-16 17:59N 18°01' W 063°03'0 0.0
2019-Mar-16 17:25N 18°01' W 063°03'0 0.0
2019-Mar-16 16:52N 18°01' W 063°03'0 0.0
2019-Mar-16 16:13N 18°01' W 063°03'0 0.6
2019-Mar-16 15:54N 18°00' W 063°03'1 3.2
2019-Mar-16 15:30N 18°00' W 063°04'711.3
2019-Mar-16 14:55N 18°03' W 063°11'1018.8
2019-Mar-16 14:23N 18°09' W 063°19'918.5
2019-Mar-16 13:54N 18°15' W 063°26'  
2019-Mar-12 00:03N 20°35' W 086°56'117.0
2019-Mar-12 00:01N 20°35' W 086°57'4 8.2
2019-Mar-11 23:30N 20°31' W 086°57'0 0.0
2019-Mar-11 22:58N 20°31' W 086°57'0 0.0
2019-Mar-11 22:28N 20°31' W 086°57'0 0.0
2019-Mar-11 22:00N 20°31' W 086°57'0 0.0
2019-Mar-11 21:30N 20°31' W 086°57'0 0.0
2019-Mar-11 21:00N 20°31' W 086°57'0 0.0
2019-Mar-11 20:30N 20°31' W 086°57'0 0.0
2019-Mar-11 20:00N 20°31' W 086°57'0 0.0
2019-Mar-11 19:29N 20°31' W 086°57'0 0.0
2019-Mar-11 18:59N 20°31' W 086°57'0 0.0
2019-Mar-11 18:29N 20°31' W 086°57'0 0.0
2019-Mar-11 17:59N 20°31' W 086°57'0 0.0
2019-Mar-11 17:28N 20°31' W 086°57'0 0.0
2019-Mar-11 16:58N 20°31' W 086°57'0 0.0
2019-Mar-11 16:28N 20°31' W 086°57'0 0.0
2019-Mar-11 15:58N 20°31' W 086°57'0 0.0
2019-Mar-11 15:28N 20°31' W 086°57'0 0.0
2019-Mar-11 15:00N 20°31' W 086°57'0 0.0
2019-Mar-11 14:27N 20°31' W 086°57'1 3.1
2019-Mar-11 14:00N 20°32' W 086°57'510.6
2019-Mar-11 13:30N 20°36' W 086°54'  

Dump ship's entire track history